createdAt,value
2018-11-13T00:00:38.669Z,69.8
2018-11-13T00:01:38.565Z,69.8
2018-11-13T00:02:38.494Z,69.9
2018-11-13T00:03:38.873Z,69.3
2018-11-13T00:13:37.812Z,67.1
2018-11-13T00:14:37.712Z,67.8
2018-11-13T00:15:37.621Z,68.1
2018-11-13T00:16:37.505Z,68.3
2018-11-13T00:17:37.393Z,68.6
2018-11-13T00:18:37.350Z,68.7
2018-11-13T00:19:37.258Z,68.9
2018-11-13T00:20:37.159Z,69
2018-11-13T00:21:37.063Z,69.1
2018-11-13T00:22:36.957Z,69.2
2018-11-13T00:23:37.365Z,69.4
2018-11-13T00:24:37.288Z,69.4
2018-11-13T00:25:37.184Z,69.4
2018-11-13T00:26:37.088Z,69.6
2018-11-13T00:27:37.638Z,69.8
2018-11-13T00:28:38.022Z,69.8
2018-11-13T00:29:37.912Z,69.8
2018-11-13T00:30:37.812Z,70
2018-11-13T00:31:37.755Z,70.2
2018-11-13T00:32:37.647Z,70.2
2018-11-13T00:33:38.005Z,70.2
2018-11-13T00:34:37.920Z,70.2
2018-11-13T00:35:37.814Z,70.3
2018-11-13T00:36:37.713Z,70.3
2018-11-13T00:37:37.606Z,70.3
2018-11-13T00:38:37.513Z,70.3
2018-11-13T00:39:37.425Z,70.2
2018-11-13T00:40:37.318Z,70.2
2018-11-13T00:41:37.217Z,70.1
2018-11-13T00:42:37.121Z,70.2
2018-11-13T00:43:37.433Z,70.2
2018-11-13T00:44:37.347Z,70.2
2018-11-13T00:45:37.851Z,70.2
2018-11-13T00:46:38.172Z,70.2
2018-11-13T00:47:38.113Z,70.1
2018-11-13T00:48:38.026Z,70.1
2018-11-13T00:49:37.932Z,70.4
2018-11-13T00:50:38.135Z,70.5
2018-11-13T00:51:38.277Z,70.4
2018-11-13T00:52:38.172Z,70.5
2018-11-13T00:53:38.509Z,70.5
2018-11-13T00:54:38.403Z,70.5
2018-11-13T00:55:38.318Z,70.4
2018-11-13T00:56:38.209Z,70.4
2018-11-13T00:57:38.103Z,70.4
2018-11-13T00:58:38.001Z,70.5
2018-11-13T00:59:37.914Z,70.5
2018-11-13T01:00:38.054Z,70.5
2018-11-13T01:01:38.076Z,70.6
2018-11-13T01:02:37.977Z,70.7
2018-11-13T01:03:38.336Z,70.7
2018-11-13T01:04:38.243Z,70.7
2018-11-13T01:05:38.369Z,70.8
2018-11-13T01:06:38.400Z,70.8
2018-11-13T01:07:38.503Z,70.8
2018-11-13T01:08:38.586Z,70.8
2018-11-13T01:09:38.486Z,70.8
2018-11-13T01:10:38.372Z,70.7
2018-11-13T01:11:38.464Z,70.8
2018-11-13T01:12:38.412Z,70.9
2018-11-13T01:13:38.960Z,70.3
2018-11-13T01:14:38.845Z,70.9
2018-11-13T01:15:38.735Z,70.9
2018-11-13T01:16:38.648Z,70.8
2018-11-13T01:17:38.539Z,70.8
2018-11-13T01:18:38.432Z,70.8
2018-11-13T01:19:38.326Z,70.8
2018-11-13T01:20:38.227Z,70.9
2018-11-13T01:21:38.135Z,70.9
2018-11-13T01:22:38.058Z,70.9
2018-11-13T01:23:38.416Z,70.9
2018-11-13T01:24:38.348Z,70.9
2018-11-13T01:25:38.300Z,70.9
2018-11-13T01:26:38.222Z,70.8
2018-11-13T01:27:38.123Z,70.9
2018-11-13T01:28:38.024Z,70.9
2018-11-13T01:29:37.923Z,71
2018-11-13T01:30:37.851Z,70.9
2018-11-13T01:31:37.780Z,70.8
2018-11-13T01:32:37.676Z,70.8
2018-11-13T01:33:39.003Z,70.9
2018-11-13T01:34:38.889Z,70.9
2018-11-13T01:35:38.800Z,70.9
2018-11-13T01:36:38.708Z,70.9
2018-11-13T01:37:38.614Z,71
2018-11-13T01:38:38.522Z,70.9
2018-11-13T01:39:38.414Z,71
2018-11-13T01:40:38.324Z,70.9
2018-11-13T01:41:38.518Z,70.9
2018-11-13T01:42:41.415Z,71
2018-11-13T01:43:41.733Z,71
2018-11-13T01:44:41.640Z,70.8
2018-11-13T01:45:41.585Z,70.7
2018-11-13T01:46:41.486Z,70.7
2018-11-13T01:47:41.393Z,71.5
2018-11-13T01:48:41.314Z,70.7
2018-11-13T01:49:42.701Z,70.9
2018-11-13T01:50:42.624Z,70.8
2018-11-13T01:51:42.598Z,70.9
2018-11-13T01:52:42.501Z,70.9
2018-11-13T02:03:40.692Z,67.6
2018-11-13T02:04:40.598Z,68.5
2018-11-13T02:05:40.505Z,68.9
2018-11-13T02:06:40.383Z,68.9
2018-11-13T02:07:40.302Z,69.1
2018-11-13T02:08:40.208Z,69
2018-11-13T02:09:40.150Z,69
2018-11-13T02:10:40.048Z,69
2018-11-13T02:11:39.937Z,69.2
2018-11-13T02:12:39.842Z,69.1
2018-11-13T02:13:40.174Z,68.5
2018-11-13T02:14:40.062Z,69.3
2018-11-13T02:15:39.992Z,69.4
2018-11-13T02:16:39.880Z,69.4
2018-11-13T02:17:39.775Z,69.3
2018-11-13T02:18:39.698Z,69.4
2018-11-13T02:19:39.604Z,69.5
2018-11-13T02:20:39.542Z,69.6
2018-11-13T02:21:39.445Z,69.7
2018-11-13T02:22:39.345Z,69.6
2018-11-13T02:23:39.675Z,70.3
2018-11-13T02:24:39.574Z,69.6
2018-11-13T02:25:39.482Z,69.5
2018-11-13T02:26:39.386Z,69.4
2018-11-13T02:27:39.285Z,69.4
2018-11-13T02:28:39.180Z,69.4
2018-11-13T02:29:39.064Z,69.5
2018-11-13T02:30:38.971Z,69.5
2018-11-13T02:31:38.878Z,69.6
2018-11-13T02:32:38.772Z,69.3
2018-11-13T02:33:39.086Z,69.2
2018-11-13T02:34:38.996Z,69.2
2018-11-13T02:35:39.602Z,69.4
2018-11-13T02:36:39.811Z,69.1
2018-11-13T02:37:39.712Z,69.1
2018-11-13T02:38:39.602Z,69.1
2018-11-13T02:39:39.506Z,69.1
2018-11-13T02:40:39.476Z,68.9
2018-11-13T02:41:39.408Z,68.5
2018-11-13T02:42:39.305Z,68.5
2018-11-13T02:53:41.405Z,64.7
2018-11-13T02:54:41.301Z,65.5
2018-11-13T02:55:41.194Z,65.8
2018-11-13T02:56:41.118Z,65.9
2018-11-13T02:57:41.010Z,65.9
2018-11-13T02:58:40.946Z,65.6
2018-11-13T02:59:40.834Z,65.5
2018-11-13T03:00:40.737Z,65.5
2018-11-13T03:01:40.641Z,65.5
2018-11-13T03:02:40.544Z,65.6
2018-11-13T03:03:40.896Z,65.6
2018-11-13T03:04:40.800Z,65.9
2018-11-13T03:05:40.678Z,66
2018-11-13T03:06:40.584Z,66.2
2018-11-13T03:07:40.518Z,66.3
2018-11-13T03:08:40.420Z,66.3
2018-11-13T03:09:40.349Z,66.4
2018-11-13T03:10:40.281Z,66.4
2018-11-13T03:11:40.214Z,66.5
2018-11-13T03:12:40.117Z,66.4
2018-11-13T03:13:41.016Z,66.6
2018-11-13T03:14:41.197Z,66.3
2018-11-13T03:15:41.120Z,66.2
2018-11-13T03:16:41.072Z,66.2
2018-11-13T03:17:40.973Z,66.2
2018-11-13T03:18:40.886Z,66
2018-11-13T03:19:40.778Z,66
2018-11-13T03:20:40.677Z,65.7
2018-11-13T03:21:40.593Z,65.8
2018-11-13T03:22:40.498Z,65.8
2018-11-13T03:23:40.841Z,65.2
2018-11-13T03:43:38.610Z,62.5
2018-11-13T03:44:38.518Z,63.3
2018-11-13T03:45:38.427Z,63.8
2018-11-13T03:46:38.359Z,64.1
2018-11-13T03:47:38.255Z,64.5
2018-11-13T03:48:38.149Z,64.7
2018-11-13T03:49:38.062Z,65
2018-11-13T03:50:37.965Z,65.2
2018-11-13T03:51:37.878Z,65.2
2018-11-13T03:52:37.794Z,65.4
2018-11-13T03:53:38.133Z,65.5
2018-11-13T03:54:38.039Z,65.6
2018-11-13T03:55:37.941Z,66
2018-11-13T03:56:37.868Z,66.2
2018-11-13T03:57:37.779Z,66.3
2018-11-13T03:58:37.675Z,66.5
2018-11-13T03:59:37.589Z,66.6
2018-11-13T04:00:37.486Z,66.7
2018-11-13T04:01:37.401Z,66.9
2018-11-13T04:02:37.311Z,67.1
2018-11-13T04:03:37.632Z,66.8
2018-11-13T04:04:37.541Z,67.6
2018-11-13T04:05:37.663Z,68
2018-11-13T04:06:37.577Z,68.4
2018-11-13T04:07:37.472Z,68.5
2018-11-13T04:08:37.403Z,68.7
2018-11-13T04:09:37.284Z,69
2018-11-13T04:10:37.184Z,69.2
2018-11-13T04:11:37.085Z,69.5
2018-11-13T04:12:36.969Z,69.5
2018-11-13T04:13:37.305Z,69.6
2018-11-13T04:14:37.200Z,69.9
2018-11-13T04:15:37.104Z,70.1
2018-11-13T04:16:37.017Z,70.1
2018-11-13T04:17:36.967Z,70.3
2018-11-13T04:18:36.933Z,70.3
2018-11-13T04:19:36.855Z,70.4
2018-11-13T04:20:37.742Z,70.4
2018-11-13T04:21:37.668Z,70.4
2018-11-13T04:22:37.589Z,70.5
2018-11-13T04:23:37.950Z,70.5
2018-11-13T04:24:37.872Z,70.6
2018-11-13T04:25:40.888Z,70.6
2018-11-13T04:26:40.803Z,70.6
2018-11-13T04:27:40.744Z,70.5
2018-11-13T04:28:40.706Z,70.4
2018-11-13T04:29:40.608Z,70.5
2018-11-13T04:30:40.875Z,70.6
2018-11-13T04:31:41.163Z,70.6
2018-11-13T04:32:41.072Z,70.5
2018-11-13T04:33:41.436Z,70.5
2018-11-13T04:34:41.340Z,70.5
2018-11-13T04:35:41.248Z,70.6
2018-11-13T04:36:41.179Z,70.6
2018-11-13T04:37:41.073Z,70.6
2018-11-13T04:38:41.000Z,70.8
2018-11-13T04:39:40.915Z,70.9
2018-11-13T04:40:40.827Z,70.9
2018-11-13T04:41:40.742Z,70.8
2018-11-13T04:42:40.660Z,70.8
2018-11-13T04:43:41.005Z,70.6
2018-11-13T04:44:40.922Z,70.7
2018-11-13T04:45:40.824Z,70.5
2018-11-13T04:46:40.758Z,70.6
2018-11-13T04:47:40.679Z,70.6
2018-11-13T04:48:40.576Z,70.6
2018-11-13T04:49:40.477Z,71.2
2018-11-13T04:50:40.360Z,70.6
2018-11-13T04:51:40.781Z,70.6
2018-11-13T04:52:41.100Z,70.6
2018-11-13T04:53:41.439Z,70
2018-11-13T04:54:41.351Z,70.5
2018-11-13T04:55:41.266Z,70.5
2018-11-13T04:56:41.183Z,70.5
2018-11-13T04:57:41.071Z,70.3
2018-11-13T04:58:40.947Z,70.2
2018-11-13T04:59:40.837Z,70.1
2018-11-13T05:00:40.735Z,70.1
2018-11-13T05:01:40.638Z,70.1
2018-11-13T05:02:40.800Z,70.1
2018-11-13T05:03:41.481Z,69.4
2018-11-13T05:13:39.523Z,66.6
2018-11-13T05:14:39.425Z,67.2
2018-11-13T05:15:39.344Z,67.7
2018-11-13T05:16:39.284Z,67.8
2018-11-13T05:17:39.190Z,68
2018-11-13T05:18:39.091Z,68.1
2018-11-13T05:19:39.008Z,68.2
2018-11-13T05:20:38.918Z,68.6
2018-11-13T05:21:38.841Z,68.9
2018-11-13T05:22:38.750Z,68.8
2018-11-13T05:23:39.528Z,69
2018-11-13T05:24:39.433Z,69
2018-11-13T05:25:39.327Z,69.3
2018-11-13T05:26:39.237Z,69.3
2018-11-13T05:27:39.147Z,69.2
2018-11-13T05:28:39.054Z,69.4
2018-11-13T05:29:38.956Z,69.6
2018-11-13T05:30:38.859Z,69.7
2018-11-13T05:31:38.757Z,69.8
2018-11-13T05:32:38.900Z,70
2018-11-13T05:33:39.258Z,70.2
2018-11-13T05:34:40.143Z,70.3
2018-11-13T05:35:40.035Z,70.3
2018-11-13T05:36:39.919Z,70.5
2018-11-13T05:37:40.118Z,70.4
2018-11-13T05:38:40.010Z,70.5
2018-11-13T05:39:39.904Z,70.7
2018-11-13T05:40:39.795Z,70.9
2018-11-13T05:41:40.016Z,70.7
2018-11-13T05:42:40.297Z,70.9
2018-11-13T05:43:40.659Z,71
2018-11-13T05:44:40.574Z,70.7
2018-11-13T05:45:40.467Z,70.6
2018-11-13T05:46:40.377Z,70.5
2018-11-13T05:47:40.291Z,70.2
2018-11-13T05:48:40.219Z,70.1
2018-11-13T05:49:40.117Z,69.8
2018-11-13T05:50:40.014Z,70.6
2018-11-13T05:51:39.917Z,69.8
2018-11-13T05:52:39.842Z,69.6
2018-11-13T06:13:36.734Z,64.9
2018-11-13T06:14:36.644Z,65.6
2018-11-13T06:15:36.540Z,66.1
2018-11-13T06:16:36.435Z,66.3
2018-11-13T06:17:36.345Z,66.5
2018-11-13T06:18:36.508Z,66.7
2018-11-13T06:19:36.422Z,66.8
2018-11-13T06:20:36.331Z,66.8
2018-11-13T06:21:36.226Z,66.9
2018-11-13T06:22:36.140Z,67.1
2018-11-13T06:23:37.004Z,67.2
2018-11-13T06:24:36.905Z,67.4
2018-11-13T06:25:36.816Z,67.6
2018-11-13T06:26:36.709Z,67.8
2018-11-13T06:27:36.612Z,68
2018-11-13T06:28:36.537Z,68
2018-11-13T06:29:36.800Z,68.1
2018-11-13T06:30:37.008Z,68.2
2018-11-13T06:31:36.908Z,68.3
2018-11-13T06:32:36.805Z,68.5
2018-11-13T06:33:37.164Z,68.6
2018-11-13T06:34:37.074Z,68.5
2018-11-13T06:35:36.999Z,68.6
2018-11-13T06:36:36.916Z,68.7
2018-11-13T06:37:36.836Z,68.7
2018-11-13T06:38:36.817Z,68.8
2018-11-13T06:39:36.831Z,68.9
2018-11-13T06:40:36.738Z,68.9
2018-11-13T06:41:36.639Z,69
2018-11-13T06:42:36.543Z,69.1
2018-11-13T06:43:36.897Z,69.1
2018-11-13T06:44:36.807Z,69.1
2018-11-13T06:45:36.718Z,69.1
2018-11-13T06:46:36.597Z,69.1
2018-11-13T06:47:36.493Z,69.4
2018-11-13T06:48:39.734Z,69.4
2018-11-13T06:49:40.418Z,69.5
2018-11-13T06:50:40.689Z,69.7
2018-11-13T06:51:40.584Z,69.8
2018-11-13T06:52:40.497Z,69.8
2018-11-13T06:53:40.860Z,69.8
2018-11-13T06:54:40.758Z,70.1
2018-11-13T06:55:40.647Z,70.1
2018-11-13T06:56:40.543Z,70.1
2018-11-13T06:57:40.478Z,70.2
2018-11-13T06:58:40.387Z,70.3
2018-11-13T06:59:43.210Z,70.3
2018-11-13T07:00:43.126Z,70.3
2018-11-13T07:01:43.030Z,70.3
2018-11-13T07:02:42.934Z,70.6
2018-11-13T07:03:43.339Z,70.9
2018-11-13T07:04:43.268Z,70.9
2018-11-13T07:05:43.162Z,71
2018-11-13T07:06:43.064Z,71.1
2018-11-13T07:07:42.958Z,71.2
2018-11-13T07:08:42.877Z,71.1
2018-11-13T07:09:42.786Z,71.2
2018-11-13T07:10:43.112Z,71.2
2018-11-13T07:11:43.252Z,71.1
2018-11-13T07:12:43.167Z,71.1
2018-11-13T07:13:43.518Z,70.6
2018-11-13T07:33:40.795Z,64.7
2018-11-13T07:34:40.944Z,65.5
2018-11-13T07:35:40.845Z,65.9
2018-11-13T07:36:40.762Z,66.1
2018-11-13T07:37:40.665Z,66.3
2018-11-13T07:38:40.565Z,66.1
2018-11-13T07:39:40.468Z,65.7
2018-11-13T07:40:40.383Z,66
2018-11-13T07:41:40.274Z,66.2
2018-11-13T07:42:40.196Z,66.7
2018-11-13T07:43:40.535Z,66.3
2018-11-13T07:44:40.436Z,66.3
2018-11-13T07:45:40.342Z,66.5
2018-11-13T07:46:40.504Z,66.2
2018-11-13T07:47:41.944Z,66.3
2018-11-13T07:48:42.676Z,65.4
2018-11-13T07:49:42.578Z,65.5
2018-11-13T07:50:42.476Z,65.3
2018-11-13T07:51:45.094Z,65.9
2018-11-13T07:52:45.012Z,65.4
2018-11-13T07:53:45.537Z,65.4
2018-11-13T07:54:45.745Z,65.5
2018-11-13T07:55:45.633Z,65.5
2018-11-13T07:56:45.536Z,65.3
2018-11-13T07:57:45.426Z,65.1
2018-11-13T07:58:45.346Z,65.1
2018-11-13T07:59:45.249Z,65.4
2018-11-13T08:00:45.138Z,65.1
2018-11-13T08:01:45.020Z,65.4
2018-11-13T08:02:44.920Z,64.9
2018-11-13T08:03:45.928Z,65.1
2018-11-13T08:04:46.036Z,64.9
2018-11-13T08:05:46.362Z,65.1
2018-11-13T08:06:47.077Z,65.1
2018-11-13T08:07:47.441Z,64.7
2018-11-13T08:08:47.376Z,63.6
2018-11-13T08:09:47.281Z,64.1
2018-11-13T08:10:47.174Z,63.8
2018-11-13T08:11:47.060Z,63.9
2018-11-13T08:12:47.671Z,64.1
2018-11-13T08:13:49.907Z,64.2
2018-11-13T08:14:49.820Z,63.9
2018-11-13T08:15:49.728Z,64.6
2018-11-13T08:16:49.635Z,64.3
2018-11-13T08:17:49.541Z,64.3
2018-11-13T08:18:49.697Z,62.5
2018-11-13T08:19:49.898Z,61.6
2018-11-13T08:20:49.800Z,62.1
2018-11-13T08:21:49.817Z,62.2
2018-11-13T08:22:49.748Z,63.4
2018-11-13T08:23:50.091Z,63.4
2018-11-13T08:24:49.994Z,62.7
2018-11-13T08:25:49.909Z,62.9
2018-11-13T08:26:49.995Z,62.1
2018-11-13T08:27:50.009Z,62.9
2018-11-13T08:28:50.273Z,62.9
2018-11-13T08:29:50.676Z,62.2
2018-11-13T08:30:50.592Z,62.1
2018-11-13T08:31:50.510Z,62
2018-11-13T08:32:50.433Z,61.6
2018-11-13T08:33:53.745Z,61.8
2018-11-13T08:34:53.918Z,62.6
2018-11-13T08:35:54.026Z,61.2
2018-11-13T08:36:53.926Z,61.5
2018-11-13T08:37:53.836Z,60.8
2018-11-13T08:38:53.741Z,59.8
2018-11-13T08:39:53.636Z,60
2018-11-13T08:40:53.578Z,60.9
2018-11-13T08:41:53.507Z,60.5
2018-11-13T08:42:53.399Z,60.2
2018-11-13T08:43:53.822Z,60.7
2018-11-13T08:44:53.825Z,61.4
2018-11-13T08:45:53.768Z,61
2018-11-13T08:46:53.658Z,60.2
2018-11-13T08:47:53.554Z,61
2018-11-13T08:48:53.487Z,61.1
2018-11-13T08:49:53.388Z,62.3
2018-11-13T08:50:53.536Z,61.2
2018-11-13T08:51:53.688Z,60.8
2018-11-13T08:52:53.597Z,60.3
2018-11-13T08:53:53.958Z,60.7
2018-11-13T08:54:53.872Z,61.5
2018-11-13T08:55:53.785Z,61.4
2018-11-13T08:56:53.718Z,61.4
2018-11-13T08:57:53.645Z,61.3
2018-11-13T08:58:54.034Z,61.3
2018-11-13T08:59:54.491Z,61
2018-11-13T09:00:54.396Z,60.5
2018-11-13T09:01:54.333Z,60.6
2018-11-13T09:02:54.244Z,60.8
2018-11-13T09:03:54.577Z,61.6
2018-11-13T09:13:53.611Z,59.7
2018-11-13T09:14:53.505Z,59.4
2018-11-13T09:15:53.399Z,59.1
2018-11-13T09:16:53.369Z,59.8
2018-11-13T09:17:53.498Z,59.5
2018-11-13T09:18:53.986Z,59.6
2018-11-13T09:19:54.245Z,58.8
2018-11-13T09:20:54.143Z,59.6
2018-11-13T09:21:54.482Z,59.6
2018-11-13T09:22:54.988Z,59.4
2018-11-13T09:23:55.623Z,59.2
2018-11-13T09:24:55.507Z,59.2
2018-11-13T09:25:55.401Z,58.9
2018-11-13T09:26:55.315Z,58.8
2018-11-13T09:27:55.264Z,58.5
2018-11-13T09:28:55.161Z,58.5
2018-11-13T09:29:55.700Z,58.5
2018-11-13T09:30:58.158Z,58.3
2018-11-13T09:31:59.349Z,58.3
2018-11-13T09:32:59.563Z,59.5
2018-11-13T09:34:00.472Z,58.6
2018-11-13T09:35:00.496Z,58.4
2018-11-13T09:43:58.945Z,55.6
2018-11-13T09:44:59.380Z,56.6
2018-11-13T09:46:00.418Z,56.8
2018-11-13T09:47:00.793Z,57.1
2018-11-13T09:48:00.707Z,56.9
2018-11-13T09:49:00.611Z,57.4
2018-11-13T09:50:00.528Z,56.6
2018-11-13T09:51:00.453Z,57.1
2018-11-13T09:52:00.371Z,58
2018-11-13T09:53:00.318Z,57.9
2018-11-13T09:54:01.239Z,58.1
2018-11-13T09:55:01.150Z,58.7
2018-11-13T09:56:01.055Z,58.8
2018-11-13T09:57:00.968Z,57.7
2018-11-13T09:58:00.879Z,58.3
2018-11-13T09:59:01.167Z,57.3
2018-11-13T10:00:01.831Z,58.5
2018-11-13T10:01:03.820Z,57.8
2018-11-13T10:02:08.002Z,57.4
2018-11-13T10:03:13.999Z,57.5
2018-11-13T10:04:26.798Z,57.4
2018-11-13T10:05:30.379Z,57.5
2018-11-13T10:06:30.811Z,56.9
2018-11-13T10:07:30.729Z,55.8
2018-11-13T10:13:29.630Z,55.4
2018-11-13T10:14:29.958Z,55.5
2018-11-13T10:15:29.856Z,56.1
2018-11-13T10:16:29.778Z,55.6
2018-11-13T10:17:29.961Z,55.6
2018-11-13T10:18:30.230Z,55.6
2018-11-13T10:19:30.150Z,55.9
2018-11-13T10:20:30.063Z,55.9
2018-11-13T10:21:29.993Z,55.7
2018-11-13T10:22:29.879Z,56.1
2018-11-13T10:23:29.788Z,56.4
2018-11-13T10:24:30.110Z,56.9
2018-11-13T10:25:30.024Z,57
2018-11-13T10:26:30.701Z,57
2018-11-13T10:27:30.855Z,56.9
2018-11-13T10:28:30.758Z,57.1
2018-11-13T10:29:30.667Z,57
2018-11-13T10:30:30.619Z,57.5
2018-11-13T10:31:30.583Z,57.2
2018-11-13T10:32:30.481Z,57.3
2018-11-13T10:33:30.367Z,57.9
2018-11-13T10:34:30.707Z,57.3
2018-11-13T10:35:30.599Z,57.8
2018-11-13T10:36:30.530Z,57.9
2018-11-13T10:37:30.596Z,57.7
2018-11-13T10:38:30.612Z,57.8
2018-11-13T10:39:30.508Z,58.1
2018-11-13T10:40:31.435Z,58.3
2018-11-13T10:41:32.574Z,58.5
2018-11-13T10:42:32.817Z,58.5
2018-11-13T10:43:32.719Z,58.8
2018-11-13T10:44:33.075Z,58.7
2018-11-13T10:45:32.977Z,59
2018-11-13T10:46:32.906Z,59
2018-11-13T10:47:32.819Z,59.2
2018-11-13T10:48:35.317Z,59.3
2018-11-13T10:49:35.214Z,59.4
2018-11-13T10:50:35.131Z,59.5
2018-11-13T10:51:35.062Z,59.7
2018-11-13T10:52:34.961Z,59.5
2018-11-13T10:53:34.854Z,59.8
2018-11-13T10:54:35.226Z,60.1
2018-11-13T10:55:35.135Z,60.7
2018-11-13T10:56:35.538Z,61
2018-11-13T10:57:36.879Z,61.2
2018-11-13T10:58:36.779Z,61.4
2018-11-13T10:59:36.678Z,61.7
2018-11-13T11:00:36.598Z,62.2
2018-11-13T11:01:36.522Z,62.4
2018-11-13T11:02:37.364Z,62.7
2018-11-13T11:03:37.862Z,62.8
2018-11-13T11:04:38.189Z,63
2018-11-13T11:05:38.104Z,62.7
2018-11-13T11:06:38.015Z,62.9
2018-11-13T11:07:37.907Z,63.4
2018-11-13T11:08:38.024Z,63.6
2018-11-13T11:09:38.004Z,63.6
2018-11-13T11:10:37.986Z,63.8
2018-11-13T11:11:37.902Z,64.2
2018-11-13T11:12:37.806Z,64.3
2018-11-13T11:13:38.608Z,64.7
2018-11-13T11:14:39.980Z,65
2018-11-13T11:15:39.896Z,64.8
2018-11-13T11:16:39.816Z,64.9
2018-11-13T11:17:39.723Z,65
2018-11-13T11:18:40.059Z,65.1
2018-11-13T11:19:40.263Z,65.4
2018-11-13T11:20:40.162Z,65.5
2018-11-13T11:21:40.070Z,65.6
2018-11-13T11:22:40.393Z,65.6
2018-11-13T11:23:41.442Z,65.8
2018-11-13T11:24:43.136Z,66.3
2018-11-13T11:25:43.048Z,66
2018-11-13T11:26:42.969Z,66.3
2018-11-13T11:27:43.074Z,66.3
2018-11-13T11:28:43.043Z,66.4
2018-11-13T11:29:42.948Z,66.6
2018-11-13T11:30:42.880Z,66.7
2018-11-13T11:31:42.789Z,67.5
2018-11-13T11:32:42.745Z,66.7
2018-11-13T11:33:42.692Z,66.9
2018-11-13T11:34:43.037Z,67.2
2018-11-13T11:35:45.962Z,67.2
2018-11-13T11:36:45.904Z,67.1
2018-11-13T11:37:45.829Z,67.4
2018-11-13T11:38:46.218Z,67.2
2018-11-13T11:39:46.574Z,67
2018-11-13T11:40:46.494Z,67.2
2018-11-13T11:41:46.401Z,67.6
2018-11-13T11:42:46.333Z,67.9
2018-11-13T11:43:46.229Z,68
2018-11-13T11:44:46.891Z,68
2018-11-13T11:45:46.790Z,68.1
2018-11-13T11:46:46.712Z,68.1
2018-11-13T11:47:46.609Z,67.7
2018-11-13T11:48:46.572Z,67.2
2018-11-13T11:49:46.477Z,66.8
2018-11-13T11:50:46.383Z,67
2018-11-13T11:51:46.281Z,66.5
2018-11-13T11:52:46.187Z,66.6
2018-11-13T11:53:46.420Z,66.5
2018-11-13T11:54:47.099Z,66.3
2018-11-13T11:55:47.027Z,66.3
2018-11-13T11:56:46.947Z,65.7
2018-11-13T11:57:46.861Z,66
2018-11-13T11:58:46.791Z,65.8
2018-11-13T11:59:46.711Z,65.7
2018-11-13T12:00:47.196Z,65.8
2018-11-13T12:01:47.473Z,65.6
2018-11-13T12:02:47.388Z,65.1
2018-11-13T12:03:47.295Z,65.3
2018-11-13T12:04:47.858Z,65.3
2018-11-13T12:05:47.892Z,64.5
2018-11-13T12:34:52.727Z,62.6
2018-11-13T12:35:52.641Z,63.6
2018-11-13T12:36:52.547Z,64
2018-11-13T12:37:52.465Z,63.9
2018-11-13T12:38:52.374Z,64.4
2018-11-13T12:39:52.279Z,64.8
2018-11-13T12:40:52.638Z,64.8
2018-11-13T12:41:52.687Z,65.1
2018-11-13T12:42:52.597Z,65.3
2018-11-13T12:43:52.502Z,65.4
2018-11-13T12:44:52.858Z,65.6
2018-11-13T12:45:52.776Z,65.4
2018-11-13T12:46:52.840Z,65.4
2018-11-13T12:47:52.896Z,65.7
2018-11-13T12:48:53.415Z,66
2018-11-13T12:49:53.767Z,66.1
2018-11-13T12:50:53.694Z,66.2
2018-11-13T12:51:53.589Z,66.1
2018-11-13T12:52:53.497Z,66.4
2018-11-13T12:53:53.418Z,66.5
2018-11-13T12:54:53.764Z,66
2018-11-13T13:04:53.721Z,64.6
2018-11-13T13:05:53.662Z,65.6
2018-11-13T13:06:53.565Z,66.1
2018-11-13T13:07:53.495Z,66.3
2018-11-13T13:08:53.417Z,66.5
2018-11-13T13:09:53.326Z,67.1
2018-11-13T13:10:53.248Z,67.4
2018-11-13T13:11:53.178Z,67.7
2018-11-13T13:12:53.078Z,67.9
2018-11-13T13:13:52.997Z,68
2018-11-13T13:14:53.851Z,68.3
2018-11-13T13:15:53.957Z,67.9
2018-11-13T13:24:53.064Z,66.3
2018-11-13T13:25:53.473Z,67
2018-11-13T13:26:53.803Z,67.5
2018-11-13T13:27:53.715Z,67.4
2018-11-13T13:28:53.638Z,67.2
2018-11-13T13:29:53.534Z,67.4
2018-11-13T13:30:53.520Z,67.4
2018-11-13T13:31:54.063Z,67.8
2018-11-13T13:32:54.366Z,68
2018-11-13T13:33:54.316Z,68.1
2018-11-13T13:34:54.669Z,68.3
2018-11-13T13:35:54.613Z,68.5
2018-11-13T13:36:54.518Z,68.5
2018-11-13T13:37:54.396Z,68.6
2018-11-13T13:38:54.895Z,68.5
2018-11-13T13:39:55.046Z,68.5
2018-11-13T13:40:54.949Z,68.5
2018-11-13T13:41:54.934Z,68.7
2018-11-13T13:42:54.841Z,68.9
2018-11-13T13:43:54.760Z,69.2
2018-11-13T13:44:55.108Z,69.2
2018-11-13T13:45:55.018Z,69.2
2018-11-13T13:46:54.935Z,69.4
2018-11-13T13:47:54.839Z,69.2
2018-11-13T13:48:54.776Z,69.2
2018-11-13T13:49:54.670Z,68.9
2018-11-13T13:50:54.584Z,69.1
2018-11-13T13:51:54.496Z,69.3
2018-11-13T13:52:54.404Z,69.2
2018-11-13T13:53:54.948Z,69.2
2018-11-13T13:54:59.524Z,69.2
2018-11-13T14:05:00.246Z,66.2
2018-11-13T14:06:00.476Z,67
2018-11-13T14:07:00.626Z,67.6
2018-11-13T14:08:00.531Z,68.4
2018-11-13T14:09:00.642Z,68.5
2018-11-13T14:10:00.704Z,68.5
2018-11-13T14:11:00.617Z,68.6
2018-11-13T14:12:00.536Z,68.8
2018-11-13T14:13:00.447Z,69
2018-11-13T14:14:00.388Z,68.8
2018-11-13T14:15:01.710Z,69
2018-11-13T14:16:02.466Z,68.9
2018-11-13T14:17:02.374Z,69.1
2018-11-13T14:18:02.278Z,69.2
2018-11-13T14:19:02.208Z,69.4
2018-11-13T14:20:02.112Z,69.1
2018-11-13T14:21:02.590Z,70
2018-11-13T14:22:02.958Z,69.8
2018-11-13T14:23:03.369Z,69.1
2018-11-13T14:24:03.312Z,69.1
2018-11-13T14:25:03.692Z,69.3
2018-11-13T14:35:02.282Z,63.4
2018-11-13T14:36:02.214Z,64.2
2018-11-13T14:37:02.148Z,64.5
2018-11-13T14:38:02.086Z,64.3
2018-11-13T14:39:01.986Z,64.6
2018-11-13T14:40:01.946Z,65
2018-11-13T14:41:01.877Z,65.3
2018-11-13T14:42:01.809Z,65.2
2018-11-13T14:43:01.732Z,65.2
2018-11-13T14:44:01.645Z,65.2
2018-11-13T14:45:02.351Z,64.7
2018-11-13T14:46:02.641Z,64.7
2018-11-13T14:47:02.541Z,64.5
2018-11-13T14:48:02.493Z,64.8
2018-11-13T14:49:02.409Z,65.2
2018-11-13T14:50:02.348Z,65.3
2018-11-13T14:51:02.298Z,65.2
2018-11-13T14:52:02.430Z,65.7
2018-11-13T14:53:02.540Z,65.8
2018-11-13T14:54:05.533Z,65.7
2018-11-13T14:55:05.960Z,65.5
2018-11-13T14:56:05.887Z,65.8
2018-11-13T14:57:05.808Z,65.9
2018-11-13T14:58:05.709Z,66.2
2018-11-13T14:59:05.607Z,66.1
2018-11-13T15:00:05.544Z,62.4
2018-11-13T15:01:05.466Z,63.6
2018-11-13T15:02:05.370Z,63.2
2018-11-13T15:03:05.293Z,63.9
2018-11-13T15:04:05.205Z,64.3
2018-11-13T15:05:05.563Z,64.5
2018-11-13T15:06:05.467Z,64.1
2018-11-13T15:07:05.393Z,64.3
2018-11-13T15:08:05.782Z,64.2
2018-11-13T15:09:06.202Z,64.5
2018-11-13T15:10:06.127Z,65
2018-11-13T15:11:06.048Z,65.2
2018-11-13T15:12:05.979Z,65.4
2018-11-13T15:13:05.885Z,66.7
2018-11-13T15:14:08.681Z,65.5
2018-11-13T15:15:09.289Z,65.9
2018-11-13T15:16:09.442Z,66.1
2018-11-13T15:17:09.339Z,66.1
2018-11-13T15:18:09.256Z,66.1
2018-11-13T15:19:09.178Z,65.9
2018-11-13T15:20:09.106Z,66
2018-11-13T15:21:09.049Z,65.8
2018-11-13T15:22:09.161Z,65.6
2018-11-13T15:23:09.255Z,65.7
2018-11-13T15:24:15.919Z,65.9
2018-11-13T15:25:16.443Z,65.9
2018-11-13T15:26:16.370Z,65.2
2018-11-13T15:27:16.315Z,65.6
2018-11-13T15:28:16.317Z,65.6
2018-11-13T15:29:16.230Z,66.3
2018-11-13T15:30:16.144Z,65.2
2018-11-13T15:31:16.060Z,64.6
2018-11-13T15:32:15.971Z,63.6
2018-11-13T15:33:15.899Z,63.9
2018-11-13T15:34:15.812Z,64.6
2018-11-13T15:35:16.161Z,64.3
2018-11-13T15:45:16.349Z,59.9
2018-11-13T15:46:16.587Z,60.6
2018-11-13T15:47:18.487Z,60.8
2018-11-13T15:48:18.424Z,60.1
2018-11-13T15:49:18.407Z,60.6
2018-11-13T15:50:18.338Z,60.8
2018-11-13T15:51:18.508Z,60.7
2018-11-13T15:52:19.413Z,61
2018-11-13T15:53:19.980Z,60.8
2018-11-13T15:54:19.912Z,60.9
2018-11-13T15:55:20.276Z,61.4
2018-11-13T15:56:20.219Z,62
2018-11-13T15:57:20.123Z,62.2
2018-11-13T15:58:23.197Z,61.1
2018-11-13T15:59:23.182Z,61.6
2018-11-13T16:00:23.099Z,61.7
2018-11-13T16:01:23.008Z,61.8
2018-11-13T16:02:22.918Z,62.3
2018-11-13T16:03:22.837Z,62.5
2018-11-13T16:04:22.766Z,63
2018-11-13T16:05:23.159Z,63.4
2018-11-13T16:06:23.714Z,64
2018-11-13T16:07:23.900Z,64.1
2018-11-13T16:08:23.823Z,64.3
2018-11-13T16:09:23.865Z,64.7
2018-11-13T16:10:23.879Z,65
2018-11-13T16:11:23.777Z,65
2018-11-13T16:12:24.003Z,65.4
2018-11-13T16:13:24.168Z,65.6
2018-11-13T16:14:24.289Z,65.5
2018-11-13T16:15:24.724Z,65.6
2018-11-13T16:16:24.615Z,65.1
2018-11-13T16:17:24.510Z,65.3
2018-11-13T16:18:24.808Z,65.4
2018-11-13T16:19:25.109Z,65.3
2018-11-13T16:20:25.005Z,65.1
2018-11-13T16:21:25.412Z,65.2
2018-11-13T16:22:25.700Z,65.4
2018-11-13T16:23:25.681Z,65.6
2018-11-13T16:24:25.602Z,65.6
2018-11-13T16:25:25.943Z,65.6
2018-11-13T16:26:25.857Z,66.1
2018-11-13T16:27:25.762Z,65.9
2018-11-13T16:28:25.729Z,65.2
2018-11-13T16:29:25.637Z,65.8
2018-11-13T16:30:26.343Z,65.8
2018-11-13T16:31:26.997Z,66
2018-11-13T16:32:27.165Z,66.1
2018-11-13T16:33:27.063Z,66.2
2018-11-13T16:34:27.610Z,65.9
2018-11-13T16:35:28.666Z,66